createdAt,value
2018-04-10T00:00:56.245Z,982.38
2018-04-10T00:01:56.248Z,982.38
2018-04-10T00:02:56.229Z,982.32
2018-04-10T00:03:56.216Z,982.30
2018-04-10T00:04:56.216Z,982.32
2018-04-10T00:05:56.275Z,982.34
2018-04-10T00:06:56.181Z,982.33
2018-04-10T00:07:56.195Z,982.36
2018-04-10T00:08:56.178Z,982.33
2018-04-10T00:09:56.152Z,982.34
2018-04-10T00:10:56.104Z,982.34
2018-04-10T00:11:56.187Z,982.32
2018-04-10T00:12:56.066Z,982.30
2018-04-10T00:13:56.050Z,982.31
2018-04-10T00:14:56.063Z,982.31
2018-04-10T00:15:56.066Z,982.32
2018-04-10T00:16:56.018Z,982.33
2018-04-10T00:17:56.008Z,982.32
2018-04-10T00:18:55.993Z,982.32
2018-04-10T00:19:56.711Z,982.32
2018-04-10T00:20:55.944Z,982.32
2018-04-10T00:21:56.002Z,982.32
2018-04-10T00:22:55.948Z,982.31
2018-04-10T00:23:55.941Z,982.31
2018-04-10T00:24:55.920Z,982.26
2018-04-10T00:25:55.913Z,982.33
2018-04-10T00:26:55.870Z,982.26
2018-04-10T00:27:55.874Z,982.29
2018-04-10T00:28:55.879Z,982.25
2018-04-10T00:29:55.817Z,982.24
2018-04-10T00:30:55.875Z,982.21
2018-04-10T00:31:55.795Z,982.23
2018-04-10T00:32:55.782Z,982.20
2018-04-10T00:33:55.808Z,982.25
2018-04-10T00:34:55.773Z,982.17
2018-04-10T00:35:55.782Z,982.18
2018-04-10T00:36:55.739Z,982.20
2018-04-10T00:37:55.713Z,982.20
2018-04-10T00:38:55.669Z,982.20
2018-04-10T00:39:55.716Z,982.21
2018-04-10T00:40:57.323Z,982.21
2018-04-10T00:41:55.713Z,982.19
2018-04-10T00:42:55.636Z,982.24
2018-04-10T00:43:55.594Z,982.26
2018-04-10T00:44:55.642Z,982.20
2018-04-10T00:45:55.604Z,982.19
2018-04-10T00:46:55.610Z,982.19
2018-04-10T00:47:55.581Z,982.21
2018-04-10T00:48:55.556Z,982.19
2018-04-10T00:49:55.546Z,982.18
2018-04-10T00:50:55.510Z,982.19
2018-04-10T00:51:55.516Z,982.16
2018-04-10T00:52:55.594Z,982.17
2018-04-10T00:53:55.479Z,982.17
2018-04-10T00:54:55.478Z,982.16
2018-04-10T00:55:55.442Z,982.18
2018-04-10T00:56:55.420Z,982.16
2018-04-10T00:57:55.381Z,982.21
2018-04-10T00:58:55.392Z,982.23
2018-04-10T00:59:55.392Z,982.20
2018-04-10T01:00:55.367Z,982.20
2018-04-10T01:01:55.376Z,982.21
2018-04-10T01:02:55.360Z,982.15
2018-04-10T01:03:55.420Z,982.16
2018-04-10T01:04:55.299Z,982.16
2018-04-10T01:05:55.325Z,982.16
2018-04-10T01:06:55.252Z,982.11
2018-04-10T01:07:55.249Z,982.11
2018-04-10T01:08:55.252Z,982.08
2018-04-10T01:09:55.255Z,982.11
2018-04-10T01:10:55.197Z,982.08
2018-04-10T01:11:55.275Z,982.07
2018-04-10T01:12:55.194Z,982.06
2018-04-10T01:13:55.200Z,982.08
2018-04-10T01:14:55.153Z,982.04
2018-04-10T01:15:55.179Z,982.03
2018-04-10T01:16:55.146Z,982.03
2018-04-10T01:17:55.120Z,982.02
2018-04-10T01:18:55.088Z,982.05
2018-04-10T01:19:55.110Z,982.01
2018-04-10T01:20:55.126Z,982.01
2018-04-10T01:21:55.094Z,982.06
2018-04-10T01:22:55.050Z,982.05
2018-04-10T01:23:55.040Z,982.05
2018-04-10T01:24:55.056Z,982.06
2018-04-10T01:25:55.036Z,982.04
2018-04-10T01:26:55.037Z,982.06
2018-04-10T01:27:54.976Z,982.04
2018-04-10T01:28:54.995Z,982.04
2018-04-10T01:29:55.008Z,982.06
2018-04-10T01:30:54.953Z,982.05
2018-04-10T01:31:54.908Z,982.08
2018-04-10T01:32:54.892Z,982.08
2018-04-10T01:33:54.866Z,982.06
2018-04-10T01:34:54.870Z,982.09
2018-04-10T01:35:54.851Z,982.12
2018-04-10T01:36:54.806Z,982.07
2018-04-10T01:37:54.844Z,982.13
2018-04-10T01:38:54.845Z,982.09
2018-04-10T01:39:54.850Z,982.08
2018-04-10T01:40:54.751Z,982.08
2018-04-10T01:41:54.741Z,982.11
2018-04-10T01:42:54.762Z,982.10
2018-04-10T01:43:54.741Z,982.12
2018-04-10T01:44:54.760Z,982.07
2018-04-10T01:45:54.706Z,982.11
2018-04-10T01:46:54.687Z,982.08
2018-04-10T01:47:54.704Z,982.07
2018-04-10T01:48:54.691Z,982.08
2018-04-10T01:49:54.672Z,982.11
2018-04-10T01:50:54.639Z,982.10
2018-04-10T01:51:54.627Z,982.10
2018-04-10T01:52:54.594Z,982.12
2018-04-10T01:53:54.674Z,982.08
2018-04-10T01:54:54.594Z,982.08
2018-04-10T01:55:54.643Z,982.09
2018-04-10T01:56:54.556Z,982.11
2018-04-10T01:57:54.578Z,982.07
2018-04-10T01:58:54.563Z,982.08
2018-04-10T01:59:54.572Z,982.08
2018-04-10T02:00:54.563Z,982.11
2018-04-10T02:01:54.466Z,982.11
2018-04-10T02:02:54.470Z,982.09
2018-04-10T02:03:54.425Z,982.09
2018-04-10T02:04:54.495Z,982.08
2018-04-10T02:05:54.418Z,982.08
2018-04-10T02:06:54.377Z,982.10
2018-04-10T02:07:54.368Z,982.10
2018-04-10T02:08:54.409Z,982.13
2018-04-10T02:09:54.383Z,982.13
2018-04-10T02:10:54.334Z,982.15
2018-04-10T02:11:54.305Z,982.14
2018-04-10T02:12:54.314Z,982.16
2018-04-10T02:13:54.298Z,982.11
2018-04-10T02:14:54.286Z,982.15
2018-04-10T02:15:54.308Z,982.12
2018-04-10T02:16:54.255Z,982.14
2018-04-10T02:17:54.266Z,982.16
2018-04-10T02:18:54.186Z,982.16
2018-04-10T02:19:54.197Z,982.16
2018-04-10T02:20:54.174Z,982.17
2018-04-10T02:21:54.180Z,982.20
2018-04-10T02:22:54.171Z,982.18
2018-04-10T02:23:54.131Z,982.19
2018-04-10T02:24:54.098Z,982.15
2018-04-10T02:25:54.066Z,982.18
2018-04-10T02:26:54.101Z,982.16
2018-04-10T02:27:54.060Z,982.17
2018-04-10T02:28:54.047Z,982.14
2018-04-10T02:29:54.025Z,982.12
2018-04-10T02:30:53.987Z,982.09
2018-04-10T02:31:54.056Z,982.08
2018-04-10T02:32:53.961Z,982.11
2018-04-10T02:33:53.945Z,982.09
2018-04-10T02:34:53.929Z,982.08
2018-04-10T02:35:53.905Z,982.10
2018-04-10T02:36:53.980Z,982.09
2018-04-10T02:37:53.878Z,982.06
2018-04-10T02:40:47.641Z,982.10
2018-04-10T02:41:48.140Z,982.11
2018-04-10T02:42:47.548Z,982.10
2018-04-10T02:43:47.376Z,982.11
2018-04-10T02:44:47.351Z,982.11
2018-04-10T02:45:47.614Z,982.08
2018-04-10T02:46:47.566Z,982.07
2018-04-10T02:47:48.034Z,982.11
2018-04-10T02:48:47.531Z,982.15
2018-04-10T02:49:47.530Z,982.14
2018-04-10T02:50:48.028Z,982.15
2018-04-10T02:51:47.492Z,982.12
2018-04-10T02:52:47.942Z,982.20
2018-04-10T02:53:47.341Z,982.14
2018-04-10T02:54:47.469Z,982.15
2018-04-10T02:55:47.948Z,982.14
2018-04-10T02:56:47.393Z,982.22
2018-04-10T02:57:47.415Z,982.23
2018-04-10T02:58:47.942Z,982.21
2018-04-10T02:59:47.851Z,982.21
2018-04-10T03:00:47.364Z,982.18
2018-04-10T03:01:47.887Z,982.19
2018-04-10T03:02:47.345Z,982.20
2018-04-10T03:03:47.325Z,982.16
2018-04-10T03:04:47.293Z,982.18
2018-04-10T03:05:46.960Z,982.17
2018-04-10T03:06:46.858Z,982.20
2018-04-10T03:07:46.806Z,982.17
2018-04-10T03:08:46.784Z,982.13
2018-04-10T03:09:46.780Z,982.12
2018-04-10T03:10:46.781Z,982.16
2018-04-10T03:11:46.733Z,982.16
2018-04-10T03:12:46.758Z,982.16
2018-04-10T03:13:46.704Z,982.17
2018-04-10T03:14:46.704Z,982.19
2018-04-10T03:15:46.712Z,982.19
2018-04-10T03:16:46.691Z,982.17
2018-04-10T03:17:46.666Z,982.21
2018-04-10T03:18:46.631Z,982.18
2018-04-10T03:19:46.669Z,982.24
2018-04-10T03:22:40.925Z,982.24
2018-04-10T03:23:40.363Z,982.20
2018-04-10T03:24:40.347Z,982.23
2018-04-10T03:25:40.308Z,982.21
2018-04-10T03:26:40.276Z,982.19
2018-04-10T03:27:40.308Z,982.21
2018-04-10T03:28:40.305Z,982.19
2018-04-10T03:29:40.145Z,982.20
2018-04-10T03:30:40.241Z,982.26
2018-04-10T03:31:40.245Z,982.24
2018-04-10T03:32:40.219Z,982.25
2018-04-10T03:33:40.174Z,982.25
2018-04-10T03:34:40.254Z,982.24
2018-04-10T03:35:40.177Z,982.23
2018-04-10T03:36:40.216Z,982.23
2018-04-10T03:37:40.020Z,982.22
2018-04-10T03:38:40.174Z,982.23
2018-04-10T03:39:40.661Z,982.24
2018-04-10T03:40:40.128Z,982.21
2018-04-10T03:41:48.794Z,982.21
2018-04-10T03:43:44.070Z,982.20
2018-04-10T03:44:33.462Z,982.21
2018-04-10T03:45:33.282Z,982.23
2018-04-10T03:46:33.439Z,982.23
2018-04-10T03:47:33.692Z,982.24
2018-04-10T03:48:33.369Z,982.23
2018-04-10T03:49:33.083Z,982.23
2018-04-10T03:50:33.870Z,982.20
2018-04-10T03:51:33.287Z,982.14
2018-04-10T03:52:33.022Z,982.17
2018-04-10T03:53:33.262Z,982.15
2018-04-10T03:54:33.797Z,982.12
2018-04-10T03:55:33.301Z,982.16
2018-04-10T03:56:33.259Z,982.13
2018-04-10T03:57:33.188Z,982.14
2018-04-10T03:58:33.256Z,982.14
2018-04-10T03:59:32.974Z,982.16
2018-04-10T04:00:41.844Z,982.11
2018-04-10T04:02:28.065Z,982.12
2018-04-10T04:03:27.372Z,982.12
2018-04-10T04:04:27.517Z,982.12
2018-04-10T04:05:27.482Z,982.11
2018-04-10T04:06:27.452Z,982.10
2018-04-10T04:07:27.396Z,982.11
2018-04-10T04:08:27.255Z,982.12
2018-04-10T04:09:27.332Z,982.11
2018-04-10T04:10:27.294Z,982.11
2018-04-10T04:11:27.926Z,982.12
2018-04-10T04:12:27.903Z,982.11
2018-04-10T04:13:27.371Z,982.12
2018-04-10T04:14:27.358Z,982.09
2018-04-10T04:15:27.341Z,982.04
2018-04-10T04:16:26.943Z,982.08
2018-04-10T04:17:26.899Z,982.09
2018-04-10T04:18:26.880Z,982.06
2018-04-10T04:19:26.807Z,982.05
2018-04-10T04:20:26.825Z,982.04
2018-04-10T04:21:26.838Z,982.03
2018-04-10T04:22:26.902Z,982.04
2018-04-10T04:23:26.790Z,982.03
2018-04-10T04:24:26.759Z,982.00
2018-04-10T04:25:26.707Z,981.99
2018-04-10T04:26:26.715Z,981.98
2018-04-10T04:27:26.719Z,981.96
2018-04-10T04:28:26.702Z,981.94
2018-04-10T04:29:26.655Z,981.95
2018-04-10T04:30:26.693Z,981.93
2018-04-10T04:31:26.620Z,981.95
2018-04-10T04:32:26.623Z,981.93
2018-04-10T04:33:26.683Z,981.93
2018-04-10T04:34:26.568Z,981.94
2018-04-10T04:35:26.546Z,981.91
2018-04-10T04:36:26.531Z,981.92
2018-04-10T04:37:26.546Z,981.92
2018-04-10T04:38:26.516Z,981.92
2018-04-10T04:39:26.538Z,981.90
2018-04-10T04:40:26.537Z,981.88
2018-04-10T04:41:26.477Z,981.85
2018-04-10T04:42:26.516Z,981.87
2018-04-10T04:43:26.423Z,981.85
2018-04-10T04:44:26.455Z,981.83
2018-04-10T04:45:26.389Z,981.83
2018-04-10T04:46:26.355Z,981.84
2018-04-10T04:47:26.349Z,981.81
2018-04-10T04:48:26.475Z,981.82
2018-04-10T04:49:26.372Z,981.78
2018-04-10T04:50:26.354Z,981.79
2018-04-10T04:51:26.358Z,981.79
2018-04-10T04:52:26.296Z,981.84
2018-04-10T04:53:26.272Z,981.81
2018-04-10T04:54:26.255Z,981.81
2018-04-10T04:55:26.235Z,981.80
2018-04-10T04:56:26.219Z,981.83
2018-04-10T04:57:26.194Z,981.80
2018-04-10T04:58:26.181Z,981.82
2018-04-10T04:59:26.162Z,981.86
2018-04-10T05:00:26.143Z,981.86
2018-04-10T05:01:26.194Z,981.89
2018-04-10T05:02:26.148Z,981.90
2018-04-10T05:03:26.110Z,981.92
2018-04-10T05:04:26.078Z,981.92
2018-04-10T05:05:26.113Z,981.97
2018-04-10T05:06:26.063Z,981.98
2018-04-10T05:07:26.084Z,982.01
2018-04-10T05:08:26.106Z,981.98
2018-04-10T05:09:26.008Z,982.00
2018-04-10T05:10:26.006Z,981.98
2018-04-10T05:11:25.959Z,981.99
2018-04-10T05:12:25.960Z,981.96
2018-04-10T05:13:25.959Z,981.97
2018-04-10T05:14:25.969Z,981.99
2018-04-10T05:15:26.025Z,981.98
2018-04-10T05:16:26.011Z,982.04
2018-04-10T05:17:25.953Z,982.03
2018-04-10T05:18:25.844Z,982.04
2018-04-10T05:19:25.860Z,982.10
2018-04-10T05:20:25.837Z,982.08
2018-04-10T05:21:25.819Z,982.13
2018-04-10T05:22:25.802Z,982.10
2018-04-10T05:23:25.824Z,982.10
2018-04-10T05:24:25.773Z,982.12
2018-04-10T05:25:25.799Z,982.13
2018-04-10T05:26:25.738Z,982.09
2018-04-10T05:27:25.748Z,982.07
2018-04-10T05:28:25.853Z,982.10
2018-04-10T05:29:25.742Z,982.07
2018-04-10T05:30:25.700Z,982.09
2018-04-10T05:31:25.677Z,982.13
2018-04-10T05:32:25.724Z,982.17
2018-04-10T05:33:25.643Z,982.10
2018-04-10T05:34:25.588Z,982.15
2018-04-10T05:35:25.597Z,982.15
2018-04-10T05:36:25.591Z,982.15
2018-04-10T05:37:25.623Z,982.12
2018-04-10T05:38:25.594Z,982.11
2018-04-10T05:39:25.556Z,982.11
2018-04-10T05:40:25.569Z,982.10
2018-04-10T05:41:25.513Z,982.06
2018-04-10T05:42:25.601Z,982.08
2018-04-10T05:43:25.556Z,982.05
2018-04-10T05:44:25.529Z,982.03
2018-04-10T05:45:25.482Z,982.11
2018-04-10T05:46:25.468Z,982.08
2018-04-10T05:47:25.484Z,982.07
2018-04-10T05:48:25.420Z,982.10
2018-04-10T05:49:25.364Z,982.11
2018-04-10T05:50:25.420Z,982.09
2018-04-10T05:51:25.400Z,982.11
2018-04-10T05:52:25.369Z,982.12
2018-04-10T05:53:25.337Z,982.10
2018-04-10T05:54:25.305Z,982.08
2018-04-10T05:55:25.276Z,982.12
2018-04-10T05:56:25.318Z,982.13
2018-04-10T05:57:25.331Z,982.12
2018-04-10T05:58:25.242Z,982.10
2018-04-10T05:59:25.223Z,982.11
2018-04-10T06:00:25.241Z,982.09
2018-04-10T06:01:25.225Z,982.08
2018-04-10T06:02:25.188Z,982.09
2018-04-10T06:03:25.151Z,982.08
2018-04-10T06:04:25.178Z,982.07
2018-04-10T06:05:25.155Z,982.09
2018-04-10T06:06:25.129Z,982.12
2018-04-10T06:07:25.123Z,982.13
2018-04-10T06:08:25.144Z,982.14
2018-04-10T06:09:25.088Z,982.10
2018-04-10T06:10:25.053Z,982.09
2018-04-10T06:11:25.085Z,982.10
2018-04-10T06:12:25.017Z,982.10
2018-04-10T06:13:25.015Z,982.08
2018-04-10T06:14:25.085Z,982.05
2018-04-10T06:15:34.098Z,982.08
2018-04-10T06:17:19.352Z,982.09
2018-04-10T06:18:18.587Z,982.09
2018-04-10T06:19:18.675Z,982.14
2018-04-10T06:20:18.792Z,982.10
2018-04-10T06:21:18.760Z,982.13
2018-04-10T06:22:18.394Z,982.12
2018-04-10T06:23:18.279Z,982.14
2018-04-10T06:24:18.259Z,982.12
2018-04-10T06:25:18.259Z,982.09
2018-04-10T06:26:18.280Z,982.06
2018-04-10T06:27:18.267Z,982.08
2018-04-10T06:28:18.294Z,982.08
2018-04-10T06:29:18.156Z,982.04
2018-04-10T06:30:18.183Z,982.06
2018-04-10T06:31:18.154Z,982.05
2018-04-10T06:32:18.132Z,982.07
2018-04-10T06:33:18.126Z,982.06
2018-04-10T06:34:18.103Z,982.10
2018-04-10T06:35:18.101Z,982.11
2018-04-10T06:36:18.094Z,982.11
2018-04-10T06:37:18.115Z,982.15
2018-04-10T06:38:18.094Z,982.15
2018-04-10T06:39:18.030Z,982.17
2018-04-10T06:40:18.024Z,982.16
2018-04-10T06:41:18.027Z,982.17
2018-04-10T06:42:18.037Z,982.19
2018-04-10T06:43:17.995Z,982.17
2018-04-10T06:44:17.979Z,982.21
2018-04-10T06:45:18.062Z,982.24
2018-04-10T06:46:17.944Z,982.25
2018-04-10T06:47:17.922Z,982.27
2018-04-10T06:48:18.146Z,982.28
2018-04-10T06:49:18.137Z,982.27
2018-04-10T06:50:18.165Z,982.31
2018-04-10T06:51:18.139Z,982.29
2018-04-10T06:52:18.244Z,982.30
2018-04-10T06:53:18.108Z,982.31
2018-04-10T06:54:18.110Z,982.32
2018-04-10T06:55:17.944Z,982.31
2018-04-10T06:56:18.118Z,982.29
2018-04-10T06:57:17.938Z,982.30
2018-04-10T06:58:17.995Z,982.34
2018-04-10T06:59:18.043Z,982.31
2018-04-10T07:00:17.998Z,982.31
2018-04-10T07:01:18.050Z,982.27
2018-04-10T07:02:18.028Z,982.27
2018-04-10T07:03:18.088Z,982.29
2018-04-10T07:04:17.992Z,982.33
2018-04-10T07:05:17.980Z,982.29
2018-04-10T07:06:17.826Z,982.25
2018-04-10T07:07:17.997Z,982.28
2018-04-10T07:08:18.018Z,982.27
2018-04-10T07:09:17.791Z,982.26
2018-04-10T07:10:17.816Z,982.26
2018-04-10T07:11:17.653Z,982.24
2018-04-10T07:12:17.934Z,982.23
2018-04-10T07:13:17.982Z,982.25
2018-04-10T07:14:17.657Z,982.23
2018-04-10T07:15:17.878Z,982.22
2018-04-10T07:16:17.887Z,982.20
2018-04-10T07:17:17.969Z,982.20
2018-04-10T07:18:17.714Z,982.19
2018-04-10T07:19:17.627Z,982.16
2018-04-10T07:20:17.713Z,982.17
2018-04-10T07:21:17.697Z,982.19
2018-04-10T07:22:17.624Z,982.19
2018-04-10T07:23:18.001Z,982.22
2018-04-10T07:24:17.793Z,982.24
2018-04-10T07:25:17.713Z,982.21
2018-04-10T07:26:17.841Z,982.23
2018-04-10T07:27:17.857Z,982.25
2018-04-10T07:28:17.479Z,982.28
2018-04-10T07:29:17.491Z,982.23
2018-04-10T07:30:17.430Z,982.26
2018-04-10T07:31:17.554Z,982.21
2018-04-10T07:32:17.726Z,982.19
2018-04-10T07:33:17.391Z,982.22
2018-04-10T07:34:17.516Z,982.20
2018-04-10T07:35:17.389Z,982.21
2018-04-10T07:36:17.660Z,982.19
2018-04-10T07:37:17.517Z,982.21
2018-04-10T07:38:17.507Z,982.20
2018-04-10T07:39:17.445Z,982.17
2018-04-10T07:40:17.402Z,982.18
2018-04-10T07:41:17.649Z,982.19
2018-04-10T07:42:17.393Z,982.15
2018-04-10T07:43:17.316Z,982.20
2018-04-10T07:44:17.529Z,982.19
2018-04-10T07:45:17.312Z,982.19
2018-04-10T07:46:17.361Z,982.19
2018-04-10T07:47:17.281Z,982.20
2018-04-10T07:48:17.495Z,982.22
2018-04-10T07:49:17.376Z,982.22
2018-04-10T07:50:17.126Z,982.27
2018-04-10T07:51:17.550Z,982.25
2018-04-10T07:52:17.356Z,982.28
2018-04-10T07:53:17.569Z,982.30
2018-04-10T07:54:17.325Z,982.29
2018-04-10T07:55:17.162Z,982.28
2018-04-10T07:56:17.221Z,982.31
2018-04-10T07:57:17.254Z,982.38
2018-04-10T07:58:17.155Z,982.36
2018-04-10T07:59:17.553Z,982.40
2018-04-10T08:00:17.291Z,982.40
2018-04-10T08:01:17.378Z,982.40
2018-04-10T08:02:17.435Z,982.36
2018-04-10T08:03:17.330Z,982.39
2018-04-10T08:04:17.335Z,982.40
2018-04-10T08:05:17.279Z,982.41
2018-04-10T08:06:17.278Z,982.40
2018-04-10T08:07:17.309Z,982.44
2018-04-10T08:08:17.213Z,982.47
2018-04-10T08:09:16.943Z,982.45
2018-04-10T08:10:17.091Z,982.47
2018-04-10T08:11:17.357Z,982.47
2018-04-10T08:12:17.031Z,982.48
2018-04-10T08:13:17.005Z,982.46
2018-04-10T08:14:17.005Z,982.50
2018-04-10T08:15:17.079Z,982.46
2018-04-10T08:16:16.824Z,982.50
2018-04-10T08:17:16.882Z,982.49
2018-04-10T08:18:17.002Z,982.51
2018-04-10T08:19:16.943Z,982.52
2018-04-10T08:20:17.150Z,982.56
2018-04-10T08:21:17.258Z,982.55
2018-04-10T08:22:16.935Z,982.59
2018-04-10T08:23:17.053Z,982.58
2018-04-10T08:24:17.043Z,982.57
2018-04-10T08:25:16.926Z,982.59
2018-04-10T08:26:16.849Z,982.56
2018-04-10T08:27:17.204Z,982.56
2018-04-10T08:28:16.772Z,982.58
2018-04-10T08:29:16.913Z,982.60
2018-04-10T08:30:16.681Z,982.59
2018-04-10T08:31:16.803Z,982.59
2018-04-10T08:32:16.873Z,982.60
2018-04-10T08:33:16.687Z,982.60
2018-04-10T08:34:16.691Z,982.58
2018-04-10T08:35:16.925Z,982.66
2018-04-10T08:36:16.749Z,982.65
2018-04-10T08:37:16.804Z,982.63
2018-04-10T08:38:16.743Z,982.63
2018-04-10T08:39:16.700Z,982.71
2018-04-10T08:40:16.594Z,982.71
2018-04-10T08:41:16.594Z,982.66
2018-04-10T08:42:16.671Z,982.70
2018-04-10T08:43:16.971Z,982.72
2018-04-10T08:44:16.684Z,982.70
2018-04-10T08:45:16.611Z,982.74
2018-04-10T08:46:16.525Z,982.75
2018-04-10T08:47:16.626Z,982.75
2018-04-10T08:48:16.728Z,982.75
2018-04-10T08:49:16.867Z,982.77
2018-04-10T08:50:16.558Z,982.77
2018-04-10T08:51:16.623Z,982.74
2018-04-10T08:52:16.555Z,982.76
2018-04-10T08:53:16.471Z,982.76
2018-04-10T08:54:16.645Z,982.77
2018-04-10T08:55:16.482Z,982.74
2018-04-10T08:56:16.576Z,982.70
2018-04-10T08:57:16.506Z,982.73
2018-04-10T08:58:16.468Z,982.72
2018-04-10T08:59:16.446Z,982.72
2018-04-10T09:00:16.365Z,982.73
2018-04-10T09:01:16.619Z,982.72
2018-04-10T09:02:16.431Z,982.71
2018-04-10T09:03:16.431Z,982.72
2018-04-10T09:04:16.581Z,982.70
2018-04-10T09:05:16.453Z,982.66
2018-04-10T09:06:16.559Z,982.70
2018-04-10T09:07:16.534Z,982.67
2018-04-10T09:08:16.350Z,982.71
2018-04-10T09:09:16.323Z,982.71
2018-04-10T09:10:16.315Z,982.72
2018-04-10T09:11:16.314Z,982.72
2018-04-10T09:12:16.377Z,982.72
2018-04-10T09:13:16.375Z,982.75
2018-04-10T09:14:16.398Z,982.74
2018-04-10T09:15:16.276Z,982.76
2018-04-10T09:16:16.417Z,982.76
2018-04-10T09:17:16.406Z,982.75
2018-04-10T09:18:16.235Z,982.79
2018-04-10T09:19:16.219Z,982.76
2018-04-10T09:20:16.237Z,982.77
2018-04-10T09:21:16.212Z,982.81
2018-04-10T09:22:16.273Z,982.77
2018-04-10T09:23:16.183Z,982.73
2018-04-10T09:24:16.167Z,982.74
2018-04-10T09:25:16.164Z,982.71
2018-04-10T09:26:16.151Z,982.70
2018-04-10T09:27:16.141Z,982.69
2018-04-10T09:28:16.128Z,982.68
2018-04-10T09:29:16.123Z,982.65
2018-04-10T09:30:16.116Z,982.65
2018-04-10T09:31:16.118Z,982.66
2018-04-10T09:32:16.119Z,982.67
2018-04-10T09:33:16.089Z,982.68
2018-04-10T09:34:16.084Z,982.65
2018-04-10T09:35:16.090Z,982.65
2018-04-10T09:36:16.090Z,982.60
2018-04-10T09:37:16.068Z,982.63
2018-04-10T09:38:16.065Z,982.63
2018-04-10T09:39:16.052Z,982.62
2018-04-10T09:40:16.039Z,982.63
2018-04-10T09:41:16.058Z,982.67
2018-04-10T09:42:16.030Z,982.65
2018-04-10T09:43:16.017Z,982.67
2018-04-10T09:44:16.021Z,982.65
2018-04-10T09:45:16.011Z,982.69
2018-04-10T09:46:16.002Z,982.65
2018-04-10T09:47:15.992Z,982.64
2018-04-10T09:48:15.989Z,982.61
2018-04-10T09:49:15.970Z,982.61
2018-04-10T09:50:16.001Z,982.61
2018-04-10T09:51:15.992Z,982.61
2018-04-10T09:52:15.993Z,982.61
2018-04-10T09:53:15.952Z,982.61
2018-04-10T09:54:15.955Z,982.63
2018-04-10T09:55:15.941Z,982.61
2018-04-10T09:56:15.940Z,982.64
2018-04-10T09:57:15.925Z,982.63
2018-04-10T09:58:15.918Z,982.62
2018-04-10T09:59:15.938Z,982.66
2018-04-10T10:00:15.911Z,982.62
2018-04-10T10:01:15.905Z,982.61
2018-04-10T10:02:15.902Z,982.60
2018-04-10T10:03:15.892Z,982.60
2018-04-10T10:04:15.890Z,982.57
2018-04-10T10:05:15.884Z,982.60
2018-04-10T10:06:15.887Z,982.59
2018-04-10T10:07:15.906Z,982.58
2018-04-10T10:08:15.874Z,982.56
2018-04-10T10:09:15.865Z,982.59
2018-04-10T10:10:15.868Z,982.56
2018-04-10T10:11:15.848Z,982.58
2018-04-10T10:12:15.849Z,982.57
2018-04-10T10:13:15.842Z,982.58
2018-04-10T10:14:15.845Z,982.59
2018-04-10T10:15:15.839Z,982.58
2018-04-10T10:16:15.861Z,982.59
2018-04-10T10:17:15.827Z,982.58
2018-04-10T10:18:15.813Z,982.59
2018-04-10T10:19:15.811Z,982.61
2018-04-10T10:20:15.813Z,982.62
2018-04-10T10:21:15.807Z,982.59
2018-04-10T10:22:15.805Z,982.60
2018-04-10T10:23:15.801Z,982.62
2018-04-10T10:24:15.802Z,982.64
2018-04-10T10:25:15.794Z,982.60
2018-04-10T10:26:15.787Z,982.56
2018-04-10T10:27:15.807Z,982.57
2018-04-10T10:28:15.784Z,982.55
2018-04-10T10:29:15.769Z,982.52
2018-04-10T10:30:15.768Z,982.53
2018-04-10T10:31:15.758Z,982.51
2018-04-10T10:32:15.753Z,982.50
2018-04-10T10:33:15.790Z,982.48
2018-04-10T10:34:15.771Z,982.55
2018-04-10T10:35:15.774Z,982.49
2018-04-10T10:36:15.755Z,982.46
2018-04-10T10:37:15.741Z,982.45
2018-04-10T10:38:15.735Z,982.52
2018-04-10T10:39:15.732Z,982.52
2018-04-10T10:40:15.749Z,982.51
2018-04-10T10:41:15.725Z,982.50
2018-04-10T10:42:15.712Z,982.54
2018-04-10T10:43:15.735Z,982.60
2018-04-10T10:44:15.729Z,982.56
2018-04-10T10:45:15.719Z,982.56
2018-04-10T10:46:15.719Z,982.61
2018-04-10T10:47:15.722Z,982.62
2018-04-10T10:48:15.693Z,982.62
2018-04-10T10:49:15.696Z,982.59
2018-04-10T10:50:15.687Z,982.59
2018-04-10T10:51:15.690Z,982.60
2018-04-10T10:52:15.687Z,982.54
2018-04-10T10:53:15.691Z,982.57
2018-04-10T10:54:15.688Z,982.57
2018-04-10T10:55:15.703Z,982.58
2018-04-10T10:56:15.688Z,982.56
2018-04-10T10:57:15.680Z,982.59
2018-04-10T10:58:15.681Z,982.55
2018-04-10T10:59:15.674Z,982.58
2018-04-10T11:00:15.669Z,982.55
2018-04-10T11:01:15.685Z,982.56
2018-04-10T11:02:15.663Z,982.58
2018-04-10T11:03:15.660Z,982.55
2018-04-10T11:04:15.659Z,982.57
2018-04-10T11:05:15.660Z,982.57
2018-04-10T11:06:15.652Z,982.60
2018-04-10T11:07:15.743Z,982.58
2018-04-10T11:08:15.654Z,982.58
2018-04-10T11:09:15.659Z,982.58
2018-04-10T11:10:15.643Z,982.57
2018-04-10T11:11:15.638Z,982.56
2018-04-10T11:12:15.643Z,982.55
2018-04-10T11:13:15.649Z,982.55
2018-04-10T11:14:15.634Z,982.52
2018-04-10T11:15:15.636Z,982.55
2018-04-10T11:16:15.635Z,982.44
2018-04-10T11:17:15.627Z,982.46
2018-04-10T11:18:15.620Z,982.49
2018-04-10T11:19:15.617Z,982.46
2018-04-10T11:20:15.620Z,982.47
2018-04-10T11:21:15.620Z,982.46
2018-04-10T11:22:15.608Z,982.43
2018-04-10T11:23:15.611Z,982.45
2018-04-10T11:24:15.643Z,982.42
2018-04-10T11:25:15.636Z,982.41
2018-04-10T11:26:15.605Z,982.41
2018-04-10T11:27:15.631Z,982.38
2018-04-10T11:28:15.609Z,982.40
2018-04-10T11:29:15.706Z,982.39
2018-04-10T11:30:15.600Z,982.35
2018-04-10T11:31:15.603Z,982.33
2018-04-10T11:32:15.587Z,982.29
2018-04-10T11:33:15.607Z,982.30
2018-04-10T11:34:15.591Z,982.27
2018-04-10T11:35:15.585Z,982.26
2018-04-10T11:36:15.588Z,982.24
2018-04-10T11:37:15.585Z,982.29
2018-04-10T11:38:15.581Z,982.20
2018-04-10T11:39:15.583Z,982.17
2018-04-10T11:40:15.598Z,982.12
2018-04-10T11:41:15.595Z,982.12
2018-04-10T11:42:15.572Z,982.08
2018-04-10T11:43:15.572Z,982.10
2018-04-10T11:44:15.566Z,982.14
2018-04-10T11:45:15.565Z,982.12
2018-04-10T11:46:15.562Z,982.11
2018-04-10T11:47:15.562Z,982.08
2018-04-10T11:48:15.559Z,982.06
2018-04-10T11:49:15.560Z,982.09
2018-04-10T11:50:15.562Z,982.08
2018-04-10T11:51:15.546Z,982.04
2018-04-10T11:52:15.546Z,981.99
2018-04-10T11:53:15.549Z,982.01
2018-04-10T11:54:15.538Z,981.96
2018-04-10T11:55:15.535Z,981.96
2018-04-10T11:56:15.531Z,981.95
2018-04-10T11:57:15.546Z,981.90
2018-04-10T11:58:15.531Z,981.87
2018-04-10T11:59:15.528Z,981.89
2018-04-10T12:00:15.576Z,981.85
2018-04-10T12:01:15.518Z,981.83
2018-04-10T12:02:15.515Z,981.84
2018-04-10T12:03:15.512Z,981.79
2018-04-10T12:04:15.509Z,981.75
2018-04-10T12:05:15.515Z,981.76
2018-04-10T12:06:15.499Z,981.74
2018-04-10T12:07:15.505Z,981.70
2018-04-10T12:08:15.518Z,981.68
2018-04-10T12:09:15.489Z,981.70
2018-04-10T12:10:15.483Z,981.67
2018-04-10T12:11:15.480Z,981.62
2018-04-10T12:12:15.487Z,981.65
2018-04-10T12:13:15.466Z,981.62
2018-04-10T12:14:15.470Z,981.62
2018-04-10T12:15:15.473Z,981.63
2018-04-10T12:16:15.468Z,981.58
2018-04-10T12:17:15.450Z,981.57
2018-04-10T12:18:15.453Z,981.60
2018-04-10T12:19:15.472Z,981.63
2018-04-10T12:20:15.435Z,981.57
2018-04-10T12:21:15.435Z,981.56
2018-04-10T12:22:15.438Z,981.53
2018-04-10T12:23:15.431Z,981.46
2018-04-10T12:24:15.451Z,981.48
2018-04-10T12:25:15.425Z,981.49
2018-04-10T12:26:15.419Z,981.50
2018-04-10T12:27:15.409Z,981.47
2018-04-10T12:28:15.409Z,981.46
2018-04-10T12:29:15.422Z,981.50
2018-04-10T12:30:15.409Z,981.51
2018-04-10T12:31:15.396Z,981.47
2018-04-10T12:32:15.411Z,981.51
2018-04-10T12:33:15.403Z,981.50
2018-04-10T12:34:15.399Z,981.46
2018-04-10T12:35:15.387Z,981.47